sensor_id;sensor_type;location;lat;lon;timestamp;temperature;humidity
19037;DHT22;9651;49.138;8.900;2023-05-27T00:01:52;16.40;85.30
19037;DHT22;9651;49.138;8.900;2023-05-27T00:05:54;16.30;85.90
19037;DHT22;9651;49.138;8.900;2023-05-27T00:09:56;16.20;86.00
19037;DHT22;9651;49.138;8.900;2023-05-27T00:13:59;16.20;86.50
19037;DHT22;9651;49.138;8.900;2023-05-27T00:18:01;16.10;86.80
19037;DHT22;9651;49.138;8.900;2023-05-27T00:22:03;16.00;87.10
19037;DHT22;9651;49.138;8.900;2023-05-27T00:26:05;16.00;87.80
19037;DHT22;9651;49.138;8.900;2023-05-27T00:30:09;16.00;88.30
19037;DHT22;9651;49.138;8.900;2023-05-27T00:34:11;15.80;88.40
19037;DHT22;9651;49.138;8.900;2023-05-27T00:38:13;15.80;88.90
19037;DHT22;9651;49.138;8.900;2023-05-27T00:42:15;15.70;89.20
19037;DHT22;9651;49.138;8.900;2023-05-27T00:46:19;15.70;89.80
19037;DHT22;9651;49.138;8.900;2023-05-27T00:50:21;15.60;90.00
19037;DHT22;9651;49.138;8.900;2023-05-27T00:54:25;15.50;90.00
19037;DHT22;9651;49.138;8.900;2023-05-27T00:58:28;15.50;90.30
19037;DHT22;9651;49.138;8.900;2023-05-27T01:02:31;15.40;90.30
19037;DHT22;9651;49.138;8.900;2023-05-27T01:06:39;15.40;90.50
19037;DHT22;9651;49.138;8.900;2023-05-27T01:10:46;15.40;90.60
19037;DHT22;9651;49.138;8.900;2023-05-27T01:14:51;15.30;90.70
19037;DHT22;9651;49.138;8.900;2023-05-27T01:18:58;15.30;90.90
19037;DHT22;9651;49.138;8.900;2023-05-27T01:23:05;15.20;91.00
19037;DHT22;9651;49.138;8.900;2023-05-27T01:27:07;15.10;91.10
19037;DHT22;9651;49.138;8.900;2023-05-27T01:31:16;15.00;91.60
19037;DHT22;9651;49.138;8.900;2023-05-27T01:35:24;14.90;91.50
19037;DHT22;9651;49.138;8.900;2023-05-27T01:39:28;14.80;91.80
19037;DHT22;9651;49.138;8.900;2023-05-27T01:43:31;14.80;92.00
19037;DHT22;9651;49.138;8.900;2023-05-27T01:47:33;14.80;92.10
19037;DHT22;9651;49.138;8.900;2023-05-27T01:51:35;14.80;92.20
19037;DHT22;9651;49.138;8.900;2023-05-27T01:55:38;14.80;92.30
19037;DHT22;9651;49.138;8.900;2023-05-27T01:59:40;14.80;92.30
19037;DHT22;9651;49.138;8.900;2023-05-27T02:03:42;14.80;92.40
19037;DHT22;9651;49.138;8.900;2023-05-27T02:07:44;14.80;92.50
19037;DHT22;9651;49.138;8.900;2023-05-27T02:11:47;14.80;92.80
19037;DHT22;9651;49.138;8.900;2023-05-27T02:15:49;14.70;93.00
19037;DHT22;9651;49.138;8.900;2023-05-27T02:19:51;14.60;93.10
19037;DHT22;9651;49.138;8.900;2023-05-27T02:23:53;14.60;93.30
19037;DHT22;9651;49.138;8.900;2023-05-27T02:27:56;14.50;93.50
19037;DHT22;9651;49.138;8.900;2023-05-27T02:31:58;14.50;93.60
19037;DHT22;9651;49.138;8.900;2023-05-27T02:36:00;14.50;93.60
19037;DHT22;9651;49.138;8.900;2023-05-27T02:40:03;14.50;94.00
19037;DHT22;9651;49.138;8.900;2023-05-27T02:44:08;14.50;94.20
19037;DHT22;9651;49.138;8.900;2023-05-27T02:48:10;14.40;94.50
19037;DHT22;9651;49.138;8.900;2023-05-27T02:52:13;14.40;94.80
19037;DHT22;9651;49.138;8.900;2023-05-27T02:56:15;14.30;95.20
19037;DHT22;9651;49.138;8.900;2023-05-27T03:00:18;14.20;95.50
19037;DHT22;9651;49.138;8.900;2023-05-27T03:04:21;14.20;95.60
19037;DHT22;9651;49.138;8.900;2023-05-27T03:08:23;14.10;95.80
19037;DHT22;9651;49.138;8.900;2023-05-27T03:12:25;14.10;96.00
19037;DHT22;9651;49.138;8.900;2023-05-27T03:16:28;14.00;96.20
19037;DHT22;9651;49.138;8.900;2023-05-27T03:20:30;13.90;96.30
19037;DHT22;9651;49.138;8.900;2023-05-27T03:24:32;13.80;96.70
19037;DHT22;9651;49.138;8.900;2023-05-27T03:28:36;13.80;96.90
19037;DHT22;9651;49.138;8.900;2023-05-27T03:32:39;13.70;97.00
19037;DHT22;9651;49.138;8.900;2023-05-27T03:36:41;13.60;97.20
19037;DHT22;9651;49.138;8.900;2023-05-27T03:40:48;13.60;97.50
19037;DHT22;9651;49.138;8.900;2023-05-27T03:44:50;13.60;97.70
19037;DHT22;9651;49.138;8.900;2023-05-27T03:48:53;13.60;97.80
19037;DHT22;9651;49.138;8.900;2023-05-27T03:52:56;13.60;98.20
19037;DHT22;9651;49.138;8.900;2023-05-27T03:56:58;13.50;98.20
19037;DHT22;9651;49.138;8.900;2023-05-27T04:00:59;13.50;98.60
19037;DHT22;9651;49.138;8.900;2023-05-27T04:05:04;13.50;98.70
19037;DHT22;9651;49.138;8.900;2023-05-27T04:09:06;13.50;98.80
19037;DHT22;9651;49.138;8.900;2023-05-27T04:13:08;13.50;98.90
19037;DHT22;9651;49.138;8.900;2023-05-27T04:17:09;13.60;99.10
19037;DHT22;9651;49.138;8.900;2023-05-27T04:21:13;13.60;99.00
19037;DHT22;9651;49.138;8.900;2023-05-27T04:25:16;13.70;99.00
19037;DHT22;9651;49.138;8.900;2023-05-27T04:29:47;13.80;98.80
19037;DHT22;9651;49.138;8.900;2023-05-27T04:33:51;13.90;98.60
19037;DHT22;9651;49.138;8.900;2023-05-27T04:37:55;14.00;98.50
19037;DHT22;9651;49.138;8.900;2023-05-27T04:42:03;14.10;98.30
19037;DHT22;9651;49.138;8.900;2023-05-27T04:46:06;14.20;98.10
19037;DHT22;9651;49.138;8.900;2023-05-27T04:50:09;14.30;98.00
19037;DHT22;9651;49.138;8.900;2023-05-27T04:54:13;14.50;97.60
19037;DHT22;9651;49.138;8.900;2023-05-27T04:58:15;14.50;97.30
19037;DHT22;9651;49.138;8.900;2023-05-27T05:02:17;14.70;97.10
19037;DHT22;9651;49.138;8.900;2023-05-27T05:06:43;15.00;96.90
19037;DHT22;9651;49.138;8.900;2023-05-27T05:10:48;15.30;96.50
19037;DHT22;9651;49.138;8.900;2023-05-27T05:14:51;15.60;96.00
19037;DHT22;9651;49.138;8.900;2023-05-27T05:18:53;15.80;95.40
19037;DHT22;9651;49.138;8.900;2023-05-27T05:22:56;16.10;94.70
19037;DHT22;9651;49.138;8.900;2023-05-27T05:27:01;16.20;94.50
19037;DHT22;9651;49.138;8.900;2023-05-27T05:31:03;16.20;94.10
19037;DHT22;9651;49.138;8.900;2023-05-27T05:35:06;16.40;93.80
19037;DHT22;9651;49.138;8.900;2023-05-27T05:39:09;16.70;93.60
19037;DHT22;9651;49.138;8.900;2023-05-27T05:43:17;16.10;93.50
19037;DHT22;9651;49.138;8.900;2023-05-27T05:47:22;16.30;93.90
19037;DHT22;9651;49.138;8.900;2023-05-27T05:51:33;16.40;93.90
19037;DHT22;9651;49.138;8.900;2023-05-27T05:55:36;16.70;93.40
19037;DHT22;9651;49.138;8.900;2023-05-27T05:59:40;16.90;93.20
19037;DHT22;9651;49.138;8.900;2023-05-27T06:03:42;17.40;92.60
19037;DHT22;9651;49.138;8.900;2023-05-27T06:07:52;17.80;92.50
19037;DHT22;9651;49.138;8.900;2023-05-27T06:11:54;18.10;91.80
19037;DHT22;9651;49.138;8.900;2023-05-27T06:15:58;18.20;91.40
19037;DHT22;9651;49.138;8.900;2023-05-27T06:20:00;18.00;90.90
19037;DHT22;9651;49.138;8.900;2023-05-27T06:24:03;17.60;91.10
19037;DHT22;9651;49.138;8.900;2023-05-27T06:28:09;17.40;91.90
19037;DHT22;9651;49.138;8.900;2023-05-27T06:32:13;17.60;91.60
19037;DHT22;9651;49.138;8.900;2023-05-27T06:36:14;18.20;91.30
19037;DHT22;9651;49.138;8.900;2023-05-27T06:40:17;18.60;90.90
19037;DHT22;9651;49.138;8.900;2023-05-27T06:44:20;18.80;90.30
19037;DHT22;9651;49.138;8.900;2023-05-27T06:48:31;19.10;89.80
19037;DHT22;9651;49.138;8.900;2023-05-27T06:52:34;19.00;89.20
19037;DHT22;9651;49.138;8.900;2023-05-27T06:57:02;18.80;89.80
19037;DHT22;9651;49.138;8.900;2023-05-27T07:01:24;18.40;90.80
19037;DHT22;9651;49.138;8.900;2023-05-27T07:05:32;18.60;90.10
19037;DHT22;9651;49.138;8.900;2023-05-27T07:09:34;19.10;89.70
19037;DHT22;9651;49.138;8.900;2023-05-27T07:13:36;19.40;88.30
19037;DHT22;9651;49.138;8.900;2023-05-27T07:17:39;19.60;87.70
19037;DHT22;9651;49.138;8.900;2023-05-27T07:21:42;20.00;86.50
19037;DHT22;9651;49.138;8.900;2023-05-27T07:25:49;20.20;85.40
19037;DHT22;9651;49.138;8.900;2023-05-27T07:29:51;20.20;85.60
19037;DHT22;9651;49.138;8.900;2023-05-27T07:34:09;20.50;84.60
19037;DHT22;9651;49.138;8.900;2023-05-27T07:38:13;20.20;85.30
19037;DHT22;9651;49.138;8.900;2023-05-27T07:42:15;19.80;85.90
19037;DHT22;9651;49.138;8.900;2023-05-27T07:46:16;20.00;86.20
19037;DHT22;9651;49.138;8.900;2023-05-27T07:50:18;20.90;84.20
19037;DHT22;9651;49.138;8.900;2023-05-27T07:54:44;21.50;83.30
19037;DHT22;9651;49.138;8.900;2023-05-27T07:58:49;21.80;82.60
19037;DHT22;9651;49.138;8.900;2023-05-27T08:02:52;22.40;81.90
19037;DHT22;9651;49.138;8.900;2023-05-27T08:07:00;22.90;80.30
19037;DHT22;9651;49.138;8.900;2023-05-27T08:11:08;23.20;79.30
19037;DHT22;9651;49.138;8.900;2023-05-27T08:15:42;23.60;78.60
19037;DHT22;9651;49.138;8.900;2023-05-27T08:19:56;23.70;77.40
19037;DHT22;9651;49.138;8.900;2023-05-27T08:24:34;23.20;79.70
19037;DHT22;9651;49.138;8.900;2023-05-27T08:28:42;24.00;77.80
19037;DHT22;9651;49.138;8.900;2023-05-27T08:33:02;24.60;75.60
19037;DHT22;9651;49.138;8.900;2023-05-27T08:37:04;25.10;75.20
19037;DHT22;9651;49.138;8.900;2023-05-27T08:41:13;25.10;73.90
19037;DHT22;9651;49.138;8.900;2023-05-27T08:45:17;24.90;74.30
19037;DHT22;9651;49.138;8.900;2023-05-27T08:49:20;24.70;74.00
19037;DHT22;9651;49.138;8.900;2023-05-27T08:53:22;25.00;74.40
19037;DHT22;9651;49.138;8.900;2023-05-27T08:57:28;25.20;72.40
19037;DHT22;9651;49.138;8.900;2023-05-27T09:01:32;25.50;73.70
19037;DHT22;9651;49.138;8.900;2023-05-27T09:05:36;26.10;72.30
19037;DHT22;9651;49.138;8.900;2023-05-27T09:09:38;25.90;72.60
19037;DHT22;9651;49.138;8.900;2023-05-27T09:13:42;25.30;71.60
19037;DHT22;9651;49.138;8.900;2023-05-27T09:17:46;24.80;73.10
19037;DHT22;9651;49.138;8.900;2023-05-27T09:21:50;25.00;73.20
19037;DHT22;9651;49.138;8.900;2023-05-27T09:25:53;25.50;72.60
19037;DHT22;9651;49.138;8.900;2023-05-27T09:29:56;26.40;70.90
19037;DHT22;9651;49.138;8.900;2023-05-27T09:34:09;26.90;69.00
19037;DHT22;9651;49.138;8.900;2023-05-27T09:38:12;26.90;69.10
19037;DHT22;9651;49.138;8.900;2023-05-27T09:42:14;27.70;69.10
19037;DHT22;9651;49.138;8.900;2023-05-27T09:46:17;28.50;67.00
19037;DHT22;9651;49.138;8.900;2023-05-27T09:50:21;29.10;66.00
19037;DHT22;9651;49.138;8.900;2023-05-27T09:54:23;29.60;65.10
19037;DHT22;9651;49.138;8.900;2023-05-27T09:58:25;30.00;63.50
19037;DHT22;9651;49.138;8.900;2023-05-27T10:02:28;30.00;63.00
19037;DHT22;9651;49.138;8.900;2023-05-27T10:06:33;30.50;62.50
19037;DHT22;9651;49.138;8.900;2023-05-27T10:10:35;30.70;62.30
19037;DHT22;9651;49.138;8.900;2023-05-27T10:14:37;30.80;61.10
19037;DHT22;9651;49.138;8.900;2023-05-27T10:18:42;31.40;60.40
19037;DHT22;9651;49.138;8.900;2023-05-27T10:22:46;31.40;60.00
19037;DHT22;9651;49.138;8.900;2023-05-27T10:26:48;31.20;59.30
19037;DHT22;9651;49.138;8.900;2023-05-27T10:30:50;31.20;59.20
19037;DHT22;9651;49.138;8.900;2023-05-27T10:34:52;31.50;59.60
19037;DHT22;9651;49.138;8.900;2023-05-27T10:38:58;31.70;58.60
19037;DHT22;9651;49.138;8.900;2023-05-27T10:43:01;32.10;58.90
19037;DHT22;9651;49.138;8.900;2023-05-27T10:47:04;32.70;58.90
19037;DHT22;9651;49.138;8.900;2023-05-27T10:51:06;33.30;57.50
19037;DHT22;9651;49.138;8.900;2023-05-27T10:55:10;33.50;56.50
19037;DHT22;9651;49.138;8.900;2023-05-27T10:59:19;31.90;57.40
19037;DHT22;9651;49.138;8.900;2023-05-27T11:03:23;31.70;57.40
19037;DHT22;9651;49.138;8.900;2023-05-27T11:07:25;32.60;57.30
19037;DHT22;9651;49.138;8.900;2023-05-27T11:11:29;32.60;57.00
19037;DHT22;9651;49.138;8.900;2023-05-27T11:15:30;32.60;55.10
19037;DHT22;9651;49.138;8.900;2023-05-27T11:19:32;32.40;56.10
19037;DHT22;9651;49.138;8.900;2023-05-27T11:23:36;32.50;55.10
19037;DHT22;9651;49.138;8.900;2023-05-27T11:27:39;33.00;54.70
19037;DHT22;9651;49.138;8.900;2023-05-27T11:31:46;33.60;54.30
19037;DHT22;9651;49.138;8.900;2023-05-27T11:35:49;33.30;54.80
19037;DHT22;9651;49.138;8.900;2023-05-27T11:39:53;32.60;54.30
19037;DHT22;9651;49.138;8.900;2023-05-27T11:43:57;33.10;54.20
19037;DHT22;9651;49.138;8.900;2023-05-27T11:47:59;34.20;52.90
19037;DHT22;9651;49.138;8.900;2023-05-27T11:52:03;34.60;51.80
19037;DHT22;9651;49.138;8.900;2023-05-27T11:56:05;33.30;52.00
19037;DHT22;9651;49.138;8.900;2023-05-27T12:00:10;33.30;52.40
19037;DHT22;9651;49.138;8.900;2023-05-27T12:04:13;33.30;52.20
19037;DHT22;9651;49.138;8.900;2023-05-27T12:08:15;34.00;52.10
19037;DHT22;9651;49.138;8.900;2023-05-27T12:12:19;34.30;52.00
19037;DHT22;9651;49.138;8.900;2023-05-27T12:16:22;34.20;52.00
19037;DHT22;9651;49.138;8.900;2023-05-27T12:20:24;34.70;51.50
19037;DHT22;9651;49.138;8.900;2023-05-27T12:24:28;33.10;51.80
19037;DHT22;9651;49.138;8.900;2023-05-27T12:28:29;33.90;52.00
19037;DHT22;9651;49.138;8.900;2023-05-27T12:32:33;34.20;51.60
19037;DHT22;9651;49.138;8.900;2023-05-27T12:36:35;35.10;50.90
19037;DHT22;9651;49.138;8.900;2023-05-27T12:40:37;35.40;50.30
19037;DHT22;9651;49.138;8.900;2023-05-27T12:44:39;34.50;50.40
19037;DHT22;9651;49.138;8.900;2023-05-27T12:48:42;34.90;50.50
19037;DHT22;9651;49.138;8.900;2023-05-27T12:52:44;35.50;50.10
19037;DHT22;9651;49.138;8.900;2023-05-27T12:56:47;35.70;49.40
19037;DHT22;9651;49.138;8.900;2023-05-27T13:00:49;36.10;49.20
19037;DHT22;9651;49.138;8.900;2023-05-27T13:04:52;37.10;48.80
19037;DHT22;9651;49.138;8.900;2023-05-27T13:08:54;36.90;47.80
19037;DHT22;9651;49.138;8.900;2023-05-27T13:12:58;37.40;47.90
19037;DHT22;9651;49.138;8.900;2023-05-27T13:17:00;37.60;47.40
19037;DHT22;9651;49.138;8.900;2023-05-27T13:21:05;37.90;47.00
19037;DHT22;9651;49.138;8.900;2023-05-27T13:25:07;37.00;47.10
19037;DHT22;9651;49.138;8.900;2023-05-27T13:29:10;35.00;48.00
19037;DHT22;9651;49.138;8.900;2023-05-27T13:33:12;34.70;48.90
19037;DHT22;9651;49.138;8.900;2023-05-27T13:37:16;35.00;48.30
19037;DHT22;9651;49.138;8.900;2023-05-27T13:41:18;35.10;48.30
19037;DHT22;9651;49.138;8.900;2023-05-27T13:45:20;35.80;47.50
19037;DHT22;9651;49.138;8.900;2023-05-27T13:49:22;36.50;46.90
19037;DHT22;9651;49.138;8.900;2023-05-27T13:53:25;36.40;46.40
19037;DHT22;9651;49.138;8.900;2023-05-27T13:57:27;36.70;45.80
19037;DHT22;9651;49.138;8.900;2023-05-27T14:01:29;35.50;46.50
19037;DHT22;9651;49.138;8.900;2023-05-27T14:05:31;36.10;45.70
19037;DHT22;9651;49.138;8.900;2023-05-27T14:09:34;36.50;45.50
19037;DHT22;9651;49.138;8.900;2023-05-27T14:13:36;35.60;45.50
19037;DHT22;9651;49.138;8.900;2023-05-27T14:17:38;34.60;46.10
19037;DHT22;9651;49.138;8.900;2023-05-27T14:21:39;35.40;45.20
19037;DHT22;9651;49.138;8.900;2023-05-27T14:25:43;35.90;45.00
19037;DHT22;9651;49.138;8.900;2023-05-27T14:29:45;36.00;44.90
19037;DHT22;9651;49.138;8.900;2023-05-27T14:33:47;36.10;44.80
19037;DHT22;9651;49.138;8.900;2023-05-27T14:37:48;36.40;44.70
19037;DHT22;9651;49.138;8.900;2023-05-27T14:41:52;37.00;44.50
19037;DHT22;9651;49.138;8.900;2023-05-27T14:45:56;36.10;44.10
19037;DHT22;9651;49.138;8.900;2023-05-27T14:49:57;35.90;44.70
19037;DHT22;9651;49.138;8.900;2023-05-27T14:53:59;35.40;44.00
19037;DHT22;9651;49.138;8.900;2023-05-27T14:58:02;35.10;44.80
19037;DHT22;9651;49.138;8.900;2023-05-27T15:06:10;33.50;45.80
19037;DHT22;9651;49.138;8.900;2023-05-27T15:10:13;33.30;45.40
19037;DHT22;9651;49.138;8.900;2023-05-27T15:14:17;34.10;45.60
19037;DHT22;9651;49.138;8.900;2023-05-27T15:18:19;34.30;44.80
19037;DHT22;9651;49.138;8.900;2023-05-27T15:22:21;33.70;45.30
19037;DHT22;9651;49.138;8.900;2023-05-27T15:26:23;33.90;45.10
19037;DHT22;9651;49.138;8.900;2023-05-27T15:30:27;34.50;44.80
19037;DHT22;9651;49.138;8.900;2023-05-27T15:34:30;34.20;45.20
19037;DHT22;9651;49.138;8.900;2023-05-27T15:38:32;33.40;45.50
19037;DHT22;9651;49.138;8.900;2023-05-27T15:42:34;33.30;45.60
19037;DHT22;9651;49.138;8.900;2023-05-27T15:46:37;33.50;45.60
19037;DHT22;9651;49.138;8.900;2023-05-27T15:50:40;33.70;45.40
19037;DHT22;9651;49.138;8.900;2023-05-27T15:54:42;33.50;45.70
19037;DHT22;9651;49.138;8.900;2023-05-27T15:58:44;33.00;45.40
19037;DHT22;9651;49.138;8.900;2023-05-27T16:02:47;32.90;45.30
19037;DHT22;9651;49.138;8.900;2023-05-27T16:06:49;32.40;45.90
19037;DHT22;9651;49.138;8.900;2023-05-27T16:10:53;31.90;47.10
19037;DHT22;9651;49.138;8.900;2023-05-27T16:14:55;31.40;46.50
19037;DHT22;9651;49.138;8.900;2023-05-27T16:18:58;31.00;47.30
19037;DHT22;9651;49.138;8.900;2023-05-27T16:23:00;30.70;47.50
19037;DHT22;9651;49.138;8.900;2023-05-27T16:27:02;30.30;47.90
19037;DHT22;9651;49.138;8.900;2023-05-27T16:31:04;30.10;48.30
19037;DHT22;9651;49.138;8.900;2023-05-27T16:35:08;30.20;48.00
19037;DHT22;9651;49.138;8.900;2023-05-27T16:39:10;29.90;47.80
19037;DHT22;9651;49.138;8.900;2023-05-27T16:43:12;29.60;48.10
19037;DHT22;9651;49.138;8.900;2023-05-27T16:47:15;29.00;48.80
19037;DHT22;9651;49.138;8.900;2023-05-27T16:51:18;28.20;49.60
19037;DHT22;9651;49.138;8.900;2023-05-27T16:55:20;27.60;50.10
19037;DHT22;9651;49.138;8.900;2023-05-27T16:59:22;27.00;50.30
19037;DHT22;9651;49.138;8.900;2023-05-27T17:03:24;26.80;50.30
19037;DHT22;9651;49.138;8.900;2023-05-27T17:07:27;27.00;50.50
19037;DHT22;9651;49.138;8.900;2023-05-27T17:11:29;26.90;50.90
19037;DHT22;9651;49.138;8.900;2023-05-27T17:15:31;26.40;50.80
19037;DHT22;9651;49.138;8.900;2023-05-27T17:19:33;25.90;51.10
19037;DHT22;9651;49.138;8.900;2023-05-27T17:23:36;25.50;52.30
19037;DHT22;9651;49.138;8.900;2023-05-27T17:27:38;25.30;52.80
19037;DHT22;9651;49.138;8.900;2023-05-27T17:31:40;25.10;53.10
19037;DHT22;9651;49.138;8.900;2023-05-27T17:35:42;25.00;53.30
19037;DHT22;9651;49.138;8.900;2023-05-27T17:39:45;24.90;53.80
19037;DHT22;9651;49.138;8.900;2023-05-27T17:43:47;24.70;54.10
19037;DHT22;9651;49.138;8.900;2023-05-27T17:47:49;24.60;54.80
19037;DHT22;9651;49.138;8.900;2023-05-27T17:51:51;24.40;54.70
19037;DHT22;9651;49.138;8.900;2023-05-27T17:55:54;24.30;54.80
19037;DHT22;9651;49.138;8.900;2023-05-27T17:59:56;24.20;55.20
19037;DHT22;9651;49.138;8.900;2023-05-27T18:03:58;24.10;55.40
19037;DHT22;9651;49.138;8.900;2023-05-27T18:07:59;24.00;55.90
19037;DHT22;9651;49.138;8.900;2023-05-27T18:12:04;23.90;56.00
19037;DHT22;9651;49.138;8.900;2023-05-27T18:16:06;23.80;56.30
19037;DHT22;9651;49.138;8.900;2023-05-27T18:20:08;23.70;56.60
19037;DHT22;9651;49.138;8.900;2023-05-27T18:24:10;23.50;56.60
19037;DHT22;9651;49.138;8.900;2023-05-27T18:28:14;23.40;57.00
19037;DHT22;9651;49.138;8.900;2023-05-27T18:32:16;23.30;57.50
19037;DHT22;9651;49.138;8.900;2023-05-27T18:36:18;23.20;57.60
19037;DHT22;9651;49.138;8.900;2023-05-27T18:40:20;23.10;57.70
19037;DHT22;9651;49.138;8.900;2023-05-27T18:44:24;23.00;58.20
19037;DHT22;9651;49.138;8.900;2023-05-27T18:48:27;22.90;59.10
19037;DHT22;9651;49.138;8.900;2023-05-27T18:52:29;22.80;60.30
19037;DHT22;9651;49.138;8.900;2023-05-27T18:56:31;22.60;62.20
19037;DHT22;9651;49.138;8.900;2023-05-27T19:00:34;22.40;62.60
19037;DHT22;9651;49.138;8.900;2023-05-27T19:04:36;22.30;63.60
19037;DHT22;9651;49.138;8.900;2023-05-27T19:08:38;22.10;64.50
19037;DHT22;9651;49.138;8.900;2023-05-27T19:12:40;21.90;65.30
19037;DHT22;9651;49.138;8.900;2023-05-27T19:16:43;21.70;65.80
19037;DHT22;9651;49.138;8.900;2023-05-27T19:20:45;21.40;66.80
19037;DHT22;9651;49.138;8.900;2023-05-27T19:24:47;21.00;68.10
19037;DHT22;9651;49.138;8.900;2023-05-27T19:28:49;20.70;69.10
19037;DHT22;9651;49.138;8.900;2023-05-27T19:32:52;20.50;69.40
19037;DHT22;9651;49.138;8.900;2023-05-27T19:36:54;20.20;70.90
19037;DHT22;9651;49.138;8.900;2023-05-27T19:40:56;20.00;71.90
19037;DHT22;9651;49.138;8.900;2023-05-27T19:45:00;19.80;72.60
19037;DHT22;9651;49.138;8.900;2023-05-27T19:49:03;19.60;74.00
19037;DHT22;9651;49.138;8.900;2023-05-27T19:53:05;19.50;74.90
19037;DHT22;9651;49.138;8.900;2023-05-27T19:57:07;19.30;75.90
19037;DHT22;9651;49.138;8.900;2023-05-27T20:01:09;19.20;76.30
19037;DHT22;9651;49.138;8.900;2023-05-27T20:05:12;19.10;77.40
19037;DHT22;9651;49.138;8.900;2023-05-27T20:09:14;18.90;78.50
19037;DHT22;9651;49.138;8.900;2023-05-27T20:13:16;18.70;79.30
19037;DHT22;9651;49.138;8.900;2023-05-27T20:17:18;18.50;80.60
19037;DHT22;9651;49.138;8.900;2023-05-27T20:21:21;18.30;80.60
19037;DHT22;9651;49.138;8.900;2023-05-27T20:25:23;18.30;81.50
19037;DHT22;9651;49.138;8.900;2023-05-27T20:29:25;18.20;82.20
19037;DHT22;9651;49.138;8.900;2023-05-27T20:33:27;18.00;84.10
19037;DHT22;9651;49.138;8.900;2023-05-27T20:37:30;17.80;84.90
19037;DHT22;9651;49.138;8.900;2023-05-27T20:41:32;17.70;86.20
19037;DHT22;9651;49.138;8.900;2023-05-27T20:45:34;17.50;87.60
19037;DHT22;9651;49.138;8.900;2023-05-27T20:49:36;17.30;89.00
19037;DHT22;9651;49.138;8.900;2023-05-27T20:53:39;17.20;90.30
19037;DHT22;9651;49.138;8.900;2023-05-27T20:57:41;17.10;90.60
19037;DHT22;9651;49.138;8.900;2023-05-27T21:01:43;17.00;90.90
19037;DHT22;9651;49.138;8.900;2023-05-27T21:05:45;16.90;90.80
19037;DHT22;9651;49.138;8.900;2023-05-27T21:09:48;16.90;91.40
19037;DHT22;9651;49.138;8.900;2023-05-27T21:13:50;16.70;91.80
19037;DHT22;9651;49.138;8.900;2023-05-27T21:17:52;16.50;92.70
19037;DHT22;9651;49.138;8.900;2023-05-27T21:21:55;16.30;93.90
19037;DHT22;9651;49.138;8.900;2023-05-27T21:26:01;16.20;94.90
19037;DHT22;9651;49.138;8.900;2023-05-27T21:30:03;16.00;95.50
19037;DHT22;9651;49.138;8.900;2023-05-27T21:34:05;16.00;95.80
19037;DHT22;9651;49.138;8.900;2023-05-27T21:38:07;15.90;96.20
19037;DHT22;9651;49.138;8.900;2023-05-27T21:42:13;15.90;96.90
19037;DHT22;9651;49.138;8.900;2023-05-27T21:46:18;15.80;98.40
19037;DHT22;9651;49.138;8.900;2023-05-27T21:50:20;15.80;99.00
19037;DHT22;9651;49.138;8.900;2023-05-27T21:54:22;15.70;99.90
19037;DHT22;9651;49.138;8.900;2023-05-27T21:58:25;15.70;99.90
19037;DHT22;9651;49.138;8.900;2023-05-27T22:02:27;15.50;99.90
19037;DHT22;9651;49.138;8.900;2023-05-27T22:06:29;15.40;99.90
19037;DHT22;9651;49.138;8.900;2023-05-27T22:10:34;15.30;99.90
19037;DHT22;9651;49.138;8.900;2023-05-27T22:14:37;15.30;99.90
19037;DHT22;9651;49.138;8.900;2023-05-27T22:18:39;15.40;99.90
19037;DHT22;9651;49.138;8.900;2023-05-27T22:22:41;15.40;99.90
19037;DHT22;9651;49.138;8.900;2023-05-27T22:26:43;15.40;99.90
19037;DHT22;9651;49.138;8.900;2023-05-27T22:30:46;15.40;99.90
19037;DHT22;9651;49.138;8.900;2023-05-27T22:34:48;15.20;99.90
19037;DHT22;9651;49.138;8.900;2023-05-27T22:38:50;15.10;99.90
19037;DHT22;9651;49.138;8.900;2023-05-27T22:42:52;15.20;99.90
19037;DHT22;9651;49.138;8.900;2023-05-27T22:46:55;15.10;99.90
19037;DHT22;9651;49.138;8.900;2023-05-27T22:50:57;14.90;99.90
19037;DHT22;9651;49.138;8.900;2023-05-27T22:54:59;14.70;99.90
19037;DHT22;9651;49.138;8.900;2023-05-27T22:59:00;14.70;99.90
19037;DHT22;9651;49.138;8.900;2023-05-27T23:03:04;14.80;99.90
19037;DHT22;9651;49.138;8.900;2023-05-27T23:07:07;14.90;99.90
19037;DHT22;9651;49.138;8.900;2023-05-27T23:11:09;14.90;99.90
19037;DHT22;9651;49.138;8.900;2023-05-27T23:15:11;14.90;99.90
19037;DHT22;9651;49.138;8.900;2023-05-27T23:19:14;14.80;99.90
19037;DHT22;9651;49.138;8.900;2023-05-27T23:23:16;14.80;99.90
19037;DHT22;9651;49.138;8.900;2023-05-27T23:27:17;14.70;99.90
19037;DHT22;9651;49.138;8.900;2023-05-27T23:31:19;14.70;99.90
19037;DHT22;9651;49.138;8.900;2023-05-27T23:35:23;14.70;99.90
19037;DHT22;9651;49.138;8.900;2023-05-27T23:39:25;14.70;99.90
19037;DHT22;9651;49.138;8.900;2023-05-27T23:43:27;14.70;99.90
19037;DHT22;9651;49.138;8.900;2023-05-27T23:47:29;14.60;99.90
19037;DHT22;9651;49.138;8.900;2023-05-27T23:51:32;14.60;99.90
19037;DHT22;9651;49.138;8.900;2023-05-27T23:55:34;14.60;99.90
19037;DHT22;9651;49.138;8.900;2023-05-27T23:59:36;14.60;99.90
